Slayden, Tennessee
Current Conditions -  °F | °C
As of 2:52 AM on Friday 31 Oct 2014 (Local Time) from KCKV Reporting Station
Light Rain Light Rain  
Wind Chill: 50°   Ceiling: 7000
Heat Index: 50°   Visibility: 10mi
Dew Point: 46°   Wind: 3mph
Humidity: 86%   Direction: 280°W
Pressure: 30"   Gusts: NA
Location:  36.29°N, 87.47°W
Report Text: KCKV 310752Z AUTO 28003KT 10SM -RA OVC070 10/08 A3000 RMK AO2 RAB45 SLP158 P0000 T01000078
Loading
Personal Weather Stations






























Interactive Weather Map
Tropical Storm Tracking
New forecast layout! Learn more

10-Day Weather Forecast

Advertisements
Track Severe Weather on mobile